Kommunar, Russia
Current Conditions -  °F | °C
As of 5:00 AM on Friday 19 Dec 2014 (Local Time) from UNAA Reporting Station
Haze Haze  
Wind Chill:   Ceiling: 200
Heat Index:   Visibility: 2.1mi
Dew Point: -4°   Wind: 0mph
Humidity: 85%   Direction: NA
Pressure: 30.56"   Gusts: NA
Location:  54.33°N, 89.28°E
Report Text: UNAA 182200Z 00000MPS 3500 BR OVC002 M18/M20 Q1035 NOSIG RMKQBB070 QFE753 52190055
Loading
Personal Weather Stations






























Interactive Weather Map New forecast layout! Learn more

10-Day Weather Forecast

Advertisements
Track Severe Weather on mobile